sensor_id;sensor_type;location;lat;lon;timestamp;pressure;altitude;pressure_sealevel;temperature;humidity
10897;BME280;5501;51.176;6.470;2022-10-24T00:03:31;100079.38;;;15.97;100.00
10897;BME280;5501;51.176;6.470;2022-10-24T00:08:37;100075.81;;;15.96;100.00
10897;BME280;5501;51.176;6.470;2022-10-24T00:13:39;100094.56;;;15.82;100.00
10897;BME280;5501;51.176;6.470;2022-10-24T00:18:42;100086.44;;;15.84;100.00
10897;BME280;5501;51.176;6.470;2022-10-24T00:23:44;100084.81;;;15.81;100.00
10897;BME280;5501;51.176;6.470;2022-10-24T00:28:45;100080.75;;;15.74;100.00
10897;BME280;5501;51.176;6.470;2022-10-24T00:33:47;100076.91;;;15.64;100.00
10897;BME280;5501;51.176;6.470;2022-10-24T00:38:50;100065.63;;;15.73;100.00
10897;BME280;5501;51.176;6.470;2022-10-24T00:44:15;100049.16;;;15.79;100.00
10897;BME280;5501;51.176;6.470;2022-10-24T00:49:22;100047.25;;;15.81;100.00
10897;BME280;5501;51.176;6.470;2022-10-24T00:54:24;100043.97;;;15.76;100.00
10897;BME280;5501;51.176;6.470;2022-10-24T00:59:26;100047.63;;;15.75;100.00
10897;BME280;5501;51.176;6.470;2022-10-24T01:04:29;100044.19;;;15.73;100.00
10897;BME280;5501;51.176;6.470;2022-10-24T01:15:07;100042.81;;;15.66;100.00
10897;BME280;5501;51.176;6.470;2022-10-24T01:20:20;100034.53;;;15.55;100.00
10897;BME280;5501;51.176;6.470;2022-10-24T01:25:46;100033.94;;;15.80;100.00
10897;BME280;5501;51.176;6.470;2022-10-24T01:31:02;100034.38;;;16.02;96.94
10897;BME280;5501;51.176;6.470;2022-10-24T01:36:13;100023.56;;;16.03;96.83
10897;BME280;5501;51.176;6.470;2022-10-24T01:41:19;100017.13;;;16.06;96.23
10897;BME280;5501;51.176;6.470;2022-10-24T01:46:30;100011.69;;;16.07;96.31
10897;BME280;5501;51.176;6.470;2022-10-24T01:51:34;100002.00;;;16.05;97.23
10897;BME280;5501;51.176;6.470;2022-10-24T01:56:37;99996.53;;;16.06;96.77
10897;BME280;5501;51.176;6.470;2022-10-24T02:01:38;99992.53;;;16.27;93.99
10897;BME280;5501;51.176;6.470;2022-10-24T02:06:41;99985.25;;;16.29;93.53
10897;BME280;5501;51.176;6.470;2022-10-24T02:11:46;99980.16;;;16.39;92.13
10897;BME280;5501;51.176;6.470;2022-10-24T02:16:48;99977.56;;;16.37;91.76
10897;BME280;5501;51.176;6.470;2022-10-24T02:27:49;99991.22;;;16.48;89.86
10897;BME280;5501;51.176;6.470;2022-10-24T02:32:54;99982.78;;;16.54;88.48
10897;BME280;5501;51.176;6.470;2022-10-24T02:38:08;99981.25;;;16.50;88.45
10897;BME280;5501;51.176;6.470;2022-10-24T02:43:12;99979.03;;;16.57;87.50
10897;BME280;5501;51.176;6.470;2022-10-24T02:48:15;99977.31;;;16.56;87.36
10897;BME280;5501;51.176;6.470;2022-10-24T02:53:22;99965.53;;;16.58;86.37
10897;BME280;5501;51.176;6.470;2022-10-24T02:58:24;99963.78;;;16.57;86.21
10897;BME280;5501;51.176;6.470;2022-10-24T03:03:26;99971.06;;;16.55;86.10
10897;BME280;5501;51.176;6.470;2022-10-24T03:08:27;99970.41;;;16.52;85.69
10897;BME280;5501;51.176;6.470;2022-10-24T03:13:29;99978.34;;;16.53;85.58
10897;BME280;5501;51.176;6.470;2022-10-24T03:18:30;99974.72;;;16.54;85.39
10897;BME280;5501;51.176;6.470;2022-10-24T03:23:32;99974.13;;;16.63;84.24
10897;BME280;5501;51.176;6.470;2022-10-24T03:28:33;99968.94;;;16.60;85.67
10897;BME280;5501;51.176;6.470;2022-10-24T03:33:35;99986.91;;;16.60;84.84
10897;BME280;5501;51.176;6.470;2022-10-24T03:38:36;99988.91;;;16.56;85.61
10897;BME280;5501;51.176;6.470;2022-10-24T03:43:38;99992.75;;;16.52;85.60
10897;BME280;5501;51.176;6.470;2022-10-24T03:48:39;99988.16;;;16.54;85.37
10897;BME280;5501;51.176;6.470;2022-10-24T03:53:41;99981.34;;;16.49;85.31
10897;BME280;5501;51.176;6.470;2022-10-24T03:58:42;99982.75;;;16.40;86.47
10897;BME280;5501;51.176;6.470;2022-10-24T04:03:44;99988.88;;;16.28;87.00
10897;BME280;5501;51.176;6.470;2022-10-24T04:08:46;99977.00;;;16.32;87.00
10897;BME280;5501;51.176;6.470;2022-10-24T04:13:47;99973.66;;;16.29;86.66
10897;BME280;5501;51.176;6.470;2022-10-24T04:18:49;99983.31;;;16.31;86.16
10897;BME280;5501;51.176;6.470;2022-10-24T04:23:51;99993.41;;;16.28;86.72
10897;BME280;5501;51.176;6.470;2022-10-24T04:28:52;99991.66;;;16.27;86.36
10897;BME280;5501;51.176;6.470;2022-10-24T04:33:54;100001.16;;;16.32;85.85
10897;BME280;5501;51.176;6.470;2022-10-24T04:38:55;100007.88;;;16.39;84.62
10897;BME280;5501;51.176;6.470;2022-10-24T04:43:57;100008.91;;;16.37;84.49
10897;BME280;5501;51.176;6.470;2022-10-24T04:48:58;100009.75;;;16.37;84.69
10897;BME280;5501;51.176;6.470;2022-10-24T04:54:00;100020.31;;;16.40;83.74
10897;BME280;5501;51.176;6.470;2022-10-24T04:59:01;100020.72;;;16.34;84.28
10897;BME280;5501;51.176;6.470;2022-10-24T05:04:03;100023.00;;;16.26;84.27
10897;BME280;5501;51.176;6.470;2022-10-24T05:09:04;100023.00;;;16.26;84.70
10897;BME280;5501;51.176;6.470;2022-10-24T05:14:06;100024.91;;;16.24;84.57
10897;BME280;5501;51.176;6.470;2022-10-24T05:19:08;100021.88;;;16.30;83.92
10897;BME280;5501;51.176;6.470;2022-10-24T05:24:10;100028.19;;;16.29;83.00
10897;BME280;5501;51.176;6.470;2022-10-24T05:29:11;100028.38;;;16.26;83.70
10897;BME280;5501;51.176;6.470;2022-10-24T05:34:13;100042.53;;;16.28;83.20
10897;BME280;5501;51.176;6.470;2022-10-24T05:39:14;100038.06;;;16.29;83.32
10897;BME280;5501;51.176;6.470;2022-10-24T05:44:16;100028.38;;;16.26;83.20
10897;BME280;5501;51.176;6.470;2022-10-24T05:49:17;100029.22;;;16.27;83.60
10897;BME280;5501;51.176;6.470;2022-10-24T05:54:19;100038.94;;;16.29;83.05
10897;BME280;5501;51.176;6.470;2022-10-24T05:59:20;100038.72;;;16.32;82.83
10897;BME280;5501;51.176;6.470;2022-10-24T06:04:22;100042.75;;;16.25;83.29
10897;BME280;5501;51.176;6.470;2022-10-24T06:09:23;100048.59;;;16.32;82.71
10897;BME280;5501;51.176;6.470;2022-10-24T06:14:26;100048.97;;;16.26;83.38
10897;BME280;5501;51.176;6.470;2022-10-24T06:19:27;100061.53;;;16.25;83.42
10897;BME280;5501;51.176;6.470;2022-10-24T06:24:29;100061.41;;;16.27;83.49
10897;BME280;5501;51.176;6.470;2022-10-24T06:29:31;100071.41;;;16.25;84.17
10897;BME280;5501;51.176;6.470;2022-10-24T06:34:33;100071.13;;;16.29;84.13
10897;BME280;5501;51.176;6.470;2022-10-24T06:39:35;100076.53;;;16.43;83.36
10897;BME280;5501;51.176;6.470;2022-10-24T06:44:37;100075.94;;;16.38;83.29
10897;BME280;5501;51.176;6.470;2022-10-24T06:49:38;100093.22;;;16.48;82.58
10897;BME280;5501;51.176;6.470;2022-10-24T06:54:40;100089.38;;;16.52;81.86
10897;BME280;5501;51.176;6.470;2022-10-24T06:59:43;100089.00;;;16.58;81.93
10897;BME280;5501;51.176;6.470;2022-10-24T07:04:45;100100.13;;;16.52;82.31
10897;BME280;5501;51.176;6.470;2022-10-24T07:09:55;100090.81;;;16.44;83.21
10897;BME280;5501;51.176;6.470;2022-10-24T07:14:57;100107.78;;;16.44;82.94
10897;BME280;5501;51.176;6.470;2022-10-24T07:19:59;100102.72;;;16.54;82.72
10897;BME280;5501;51.176;6.470;2022-10-24T07:25:00;100102.88;;;16.51;83.07
10897;BME280;5501;51.176;6.470;2022-10-24T07:30:05;100119.78;;;16.53;83.71
10897;BME280;5501;51.176;6.470;2022-10-24T07:35:07;100125.81;;;16.56;82.66
10897;BME280;5501;51.176;6.470;2022-10-24T07:40:09;100131.56;;;16.64;83.12
10897;BME280;5501;51.176;6.470;2022-10-24T07:45:11;100134.47;;;16.75;82.79
10897;BME280;5501;51.176;6.470;2022-10-24T07:50:13;100143.97;;;16.81;82.86
10897;BME280;5501;51.176;6.470;2022-10-24T07:55:17;100150.56;;;16.89;82.71
10897;BME280;5501;51.176;6.470;2022-10-24T08:00:19;100149.06;;;16.99;82.18
10897;BME280;5501;51.176;6.470;2022-10-24T08:05:20;100150.59;;;17.03;81.85
10897;BME280;5501;51.176;6.470;2022-10-24T08:10:23;100138.31;;;16.99;82.22
10897;BME280;5501;51.176;6.470;2022-10-24T08:15:25;100143.09;;;17.08;80.99
10897;BME280;5501;51.176;6.470;2022-10-24T08:20:28;100136.56;;;17.12;81.41
10897;BME280;5501;51.176;6.470;2022-10-24T08:25:30;100142.31;;;17.20;80.64
10897;BME280;5501;51.176;6.470;2022-10-24T08:30:31;100143.84;;;17.24;80.66
10897;BME280;5501;51.176;6.470;2022-10-24T08:35:33;100150.16;;;17.37;80.19
10897;BME280;5501;51.176;6.470;2022-10-24T08:40:34;100153.03;;;17.34;80.20
10897;BME280;5501;51.176;6.470;2022-10-24T08:51:13;100151.19;;;17.63;78.62
10897;BME280;5501;51.176;6.470;2022-10-24T08:56:19;100158.34;;;17.76;78.79
10897;BME280;5501;51.176;6.470;2022-10-24T09:01:31;100162.31;;;17.97;78.11
10897;BME280;5501;51.176;6.470;2022-10-24T09:06:34;100176.94;;;17.93;77.12
10897;BME280;5501;51.176;6.470;2022-10-24T09:11:44;100163.31;;;17.82;77.83
10897;BME280;5501;51.176;6.470;2022-10-24T09:17:17;100173.44;;;17.79;78.17
10897;BME280;5501;51.176;6.470;2022-10-24T09:22:26;100189.75;;;17.90;77.70
10897;BME280;5501;51.176;6.470;2022-10-24T09:27:37;100188.97;;;17.88;77.79
10897;BME280;5501;51.176;6.470;2022-10-24T09:32:40;100199.56;;;18.03;77.49
10897;BME280;5501;51.176;6.470;2022-10-24T09:37:44;100195.31;;;18.13;76.91
10897;BME280;5501;51.176;6.470;2022-10-24T09:42:58;100196.00;;;18.29;76.63
10897;BME280;5501;51.176;6.470;2022-10-24T09:48:25;100214.84;;;18.29;76.33
10897;BME280;5501;51.176;6.470;2022-10-24T09:53:33;100206.97;;;18.26;75.90
10897;BME280;5501;51.176;6.470;2022-10-24T09:58:35;100229.84;;;18.33;75.73
10897;BME280;5501;51.176;6.470;2022-10-24T10:03:37;100219.47;;;18.27;75.03
10897;BME280;5501;51.176;6.470;2022-10-24T10:08:38;100228.31;;;18.29;75.91
10897;BME280;5501;51.176;6.470;2022-10-24T10:18:45;100243.69;;;18.27;75.06
10897;BME280;5501;51.176;6.470;2022-10-24T10:23:53;100240.34;;;18.24;75.28
10897;BME280;5501;51.176;6.470;2022-10-24T10:34:22;100250.69;;;18.30;76.36
10897;BME280;5501;51.176;6.470;2022-10-24T10:45:12;100263.81;;;18.48;75.88
10897;BME280;5501;51.176;6.470;2022-10-24T10:50:31;100285.88;;;18.41;75.29
10897;BME280;5501;51.176;6.470;2022-10-24T11:01:30;100276.00;;;18.41;71.83
10897;BME280;5501;51.176;6.470;2022-10-24T11:12:25;100292.28;;;18.52;74.17
10897;BME280;5501;51.176;6.470;2022-10-24T11:17:42;100295.41;;;18.46;74.15
10897;BME280;5501;51.176;6.470;2022-10-24T11:23:02;100300.88;;;18.45;73.76
10897;BME280;5501;51.176;6.470;2022-10-24T11:28:11;100290.41;;;18.40;72.44
10897;BME280;5501;51.176;6.470;2022-10-24T11:33:20;100293.97;;;18.41;73.16
10897;BME280;5501;51.176;6.470;2022-10-24T11:38:23;100302.53;;;18.33;72.03
10897;BME280;5501;51.176;6.470;2022-10-24T11:43:40;100298.47;;;18.40;72.91
10897;BME280;5501;51.176;6.470;2022-10-24T11:49:21;100309.66;;;18.34;73.54
10897;BME280;5501;51.176;6.470;2022-10-24T11:54:42;100305.41;;;18.30;72.89
10897;BME280;5501;51.176;6.470;2022-10-24T11:59:50;100311.78;;;18.29;73.09
10897;BME280;5501;51.176;6.470;2022-10-24T12:05:40;100310.78;;;18.44;73.07
10897;BME280;5501;51.176;6.470;2022-10-24T12:16:31;100304.31;;;18.73;71.08
10897;BME280;5501;51.176;6.470;2022-10-24T12:21:43;100304.03;;;18.90;71.94
10897;BME280;5501;51.176;6.470;2022-10-24T12:26:57;100300.50;;;19.02;71.78
10897;BME280;5501;51.176;6.470;2022-10-24T12:32:24;100301.78;;;19.09;71.72
10897;BME280;5501;51.176;6.470;2022-10-24T12:37:32;100313.88;;;19.16;71.87
10897;BME280;5501;51.176;6.470;2022-10-24T12:57:57;100295.38;;;19.24;72.62
10897;BME280;5501;51.176;6.470;2022-10-24T13:03:06;100297.50;;;19.19;71.80
10897;BME280;5501;51.176;6.470;2022-10-24T13:08:53;100287.44;;;19.21;71.12
10897;BME280;5501;51.176;6.470;2022-10-24T13:14:14;100292.47;;;19.27;71.60
10897;BME280;5501;51.176;6.470;2022-10-24T13:19:21;100283.38;;;19.16;71.13
10897;BME280;5501;51.176;6.470;2022-10-24T13:24:37;100286.53;;;19.35;70.56
10897;BME280;5501;51.176;6.470;2022-10-24T13:40:08;100298.09;;;18.85;71.86
10897;BME280;5501;51.176;6.470;2022-10-24T13:50:54;100297.28;;;19.22;71.43
10897;BME280;5501;51.176;6.470;2022-10-24T13:56:07;100297.28;;;19.22;71.86
10897;BME280;5501;51.176;6.470;2022-10-24T14:01:16;100297.50;;;19.19;70.88
10897;BME280;5501;51.176;6.470;2022-10-24T14:06:28;100291.00;;;19.09;71.90
10897;BME280;5501;51.176;6.470;2022-10-24T14:11:30;100293.69;;;19.09;72.03
10897;BME280;5501;51.176;6.470;2022-10-24T14:16:32;100305.78;;;19.16;71.36
10897;BME280;5501;51.176;6.470;2022-10-24T14:21:42;100295.97;;;19.15;70.59
10897;BME280;5501;51.176;6.470;2022-10-24T14:26:44;100297.22;;;18.97;71.42
10897;BME280;5501;51.176;6.470;2022-10-24T14:31:57;100309.09;;;18.82;72.83
10897;BME280;5501;51.176;6.470;2022-10-24T14:37:03;100317.72;;;18.87;73.72
10897;BME280;5501;51.176;6.470;2022-10-24T14:42:12;100321.63;;;18.96;73.52
10897;BME280;5501;51.176;6.470;2022-10-24T14:47:24;100321.50;;;18.97;73.26
10897;BME280;5501;51.176;6.470;2022-10-24T14:52:35;100317.91;;;18.84;73.33
10897;BME280;5501;51.176;6.470;2022-10-24T14:57:48;100327.41;;;18.77;74.77
10897;BME280;5501;51.176;6.470;2022-10-24T15:02:53;100327.59;;;18.74;75.48
10897;BME280;5501;51.176;6.470;2022-10-24T15:07:59;100328.88;;;18.69;77.28
10897;BME280;5501;51.176;6.470;2022-10-24T15:13:22;100326.38;;;18.66;77.45
10897;BME280;5501;51.176;6.470;2022-10-24T15:18:31;100329.84;;;18.68;77.52
10897;BME280;5501;51.176;6.470;2022-10-24T15:23:37;100344.16;;;18.68;77.83
10897;BME280;5501;51.176;6.470;2022-10-24T15:28:48;100358.75;;;18.52;80.49
10897;BME280;5501;51.176;6.470;2022-10-24T15:33:50;100371.00;;;18.15;86.83
10897;BME280;5501;51.176;6.470;2022-10-24T15:39:00;100368.72;;;17.67;97.33
10897;BME280;5501;51.176;6.470;2022-10-24T15:44:15;100366.59;;;17.44;100.00
10897;BME280;5501;51.176;6.470;2022-10-24T15:49:17;100382.81;;;17.13;100.00
10897;BME280;5501;51.176;6.470;2022-10-24T15:54:21;100375.50;;;17.01;100.00
10897;BME280;5501;51.176;6.470;2022-10-24T15:59:22;100378.34;;;16.98;100.00
10897;BME280;5501;51.176;6.470;2022-10-24T16:04:27;100375.88;;;16.80;100.00
10897;BME280;5501;51.176;6.470;2022-10-24T16:09:29;100386.53;;;16.81;100.00
10897;BME280;5501;51.176;6.470;2022-10-24T16:14:31;100388.28;;;16.67;100.00
10897;BME280;5501;51.176;6.470;2022-10-24T16:19:33;100393.31;;;16.57;100.00
10897;BME280;5501;51.176;6.470;2022-10-24T16:24:34;100401.13;;;16.62;100.00
10897;BME280;5501;51.176;6.470;2022-10-24T16:29:36;100392.66;;;16.54;100.00
10897;BME280;5501;51.176;6.470;2022-10-24T16:34:37;100389.53;;;16.46;100.00
10897;BME280;5501;51.176;6.470;2022-10-24T16:39:39;100397.34;;;16.50;100.00
10897;BME280;5501;51.176;6.470;2022-10-24T16:44:42;100406.16;;;16.52;100.00
10897;BME280;5501;51.176;6.470;2022-10-24T16:49:44;100412.69;;;16.31;100.00
10897;BME280;5501;51.176;6.470;2022-10-24T16:54:45;100445.41;;;16.22;100.00
10897;BME280;5501;51.176;6.470;2022-10-24T16:59:47;100426.56;;;16.24;100.00
10897;BME280;5501;51.176;6.470;2022-10-24T17:04:49;100424.81;;;16.23;100.00
10897;BME280;5501;51.176;6.470;2022-10-24T17:09:50;100428.34;;;16.08;100.00
10897;BME280;5501;51.176;6.470;2022-10-24T17:14:52;100460.50;;;15.75;100.00
10897;BME280;5501;51.176;6.470;2022-10-24T17:19:54;100466.34;;;15.32;100.00
10897;BME280;5501;51.176;6.470;2022-10-24T17:24:56;100434.50;;;14.92;100.00
10897;BME280;5501;51.176;6.470;2022-10-24T17:29:58;100428.81;;;14.98;100.00
10897;BME280;5501;51.176;6.470;2022-10-24T17:34:59;100454.75;;;14.97;100.00
10897;BME280;5501;51.176;6.470;2022-10-24T17:40:05;100451.81;;;15.02;100.00
10897;BME280;5501;51.176;6.470;2022-10-24T17:45:22;100453.56;;;15.03;100.00
10897;BME280;5501;51.176;6.470;2022-10-24T17:50:24;100455.22;;;15.05;100.00
10897;BME280;5501;51.176;6.470;2022-10-24T17:55:25;100481.34;;;15.00;100.00
10897;BME280;5501;51.176;6.470;2022-10-24T18:00:46;100460.28;;;14.76;100.00
10897;BME280;5501;51.176;6.470;2022-10-24T18:05:48;100445.53;;;14.67;100.00
10897;BME280;5501;51.176;6.470;2022-10-24T18:10:49;100453.47;;;14.69;100.00
10897;BME280;5501;51.176;6.470;2022-10-24T18:15:50;100460.66;;;14.68;100.00
10897;BME280;5501;51.176;6.470;2022-10-24T18:21:04;100471.13;;;14.73;100.00
10897;BME280;5501;51.176;6.470;2022-10-24T18:26:11;100479.50;;;14.84;100.00
10897;BME280;5501;51.176;6.470;2022-10-24T18:31:19;100473.56;;;14.96;100.00
10897;BME280;5501;51.176;6.470;2022-10-24T18:36:24;100479.38;;;14.87;100.00
10897;BME280;5501;51.176;6.470;2022-10-24T18:41:35;100486.13;;;14.94;100.00
10897;BME280;5501;51.176;6.470;2022-10-24T18:46:37;100489.91;;;14.90;100.00
10897;BME280;5501;51.176;6.470;2022-10-24T18:51:51;100491.78;;;15.06;100.00
10897;BME280;5501;51.176;6.470;2022-10-24T18:56:55;100487.84;;;15.13;100.00
10897;BME280;5501;51.176;6.470;2022-10-24T19:07:14;100484.06;;;15.36;100.00
10897;BME280;5501;51.176;6.470;2022-10-24T19:12:16;100487.06;;;15.28;100.00
10897;BME280;5501;51.176;6.470;2022-10-24T19:17:18;100487.50;;;15.38;100.00
10897;BME280;5501;51.176;6.470;2022-10-24T19:22:20;100484.06;;;15.36;100.00
10897;BME280;5501;51.176;6.470;2022-10-24T19:27:21;100489.22;;;15.39;100.00
10897;BME280;5501;51.176;6.470;2022-10-24T19:32:23;100489.97;;;15.43;100.00
10897;BME280;5501;51.176;6.470;2022-10-24T19:37:24;100487.34;;;15.41;100.00
10897;BME280;5501;51.176;6.470;2022-10-24T19:42:26;100499.94;;;15.39;100.00
10897;BME280;5501;51.176;6.470;2022-10-24T19:47:27;100518.88;;;15.53;100.00
10897;BME280;5501;51.176;6.470;2022-10-24T19:52:29;100532.03;;;15.58;100.00
10897;BME280;5501;51.176;6.470;2022-10-24T19:57:30;100529.22;;;15.25;100.00
10897;BME280;5501;51.176;6.470;2022-10-24T20:02:32;100533.00;;;15.21;100.00
10897;BME280;5501;51.176;6.470;2022-10-24T20:07:34;100555.66;;;15.14;100.00
10897;BME280;5501;51.176;6.470;2022-10-24T20:12:35;100548.41;;;14.99;100.00
10897;BME280;5501;51.176;6.470;2022-10-24T20:17:37;100542.19;;;14.80;100.00
10897;BME280;5501;51.176;6.470;2022-10-24T20:22:39;100545.63;;;14.82;100.00
10897;BME280;5501;51.176;6.470;2022-10-24T20:27:40;100551.44;;;14.73;100.00
10897;BME280;5501;51.176;6.470;2022-10-24T20:32:42;100556.91;;;14.51;100.00
10897;BME280;5501;51.176;6.470;2022-10-24T20:37:43;100554.31;;;14.50;100.00
10897;BME280;5501;51.176;6.470;2022-10-24T20:42:45;100554.19;;;14.53;100.00
10897;BME280;5501;51.176;6.470;2022-10-24T20:47:47;100575.72;;;14.50;100.00
10897;BME280;5501;51.176;6.470;2022-10-24T20:52:50;100582.53;;;14.57;100.00
10897;BME280;5501;51.176;6.470;2022-10-24T20:57:51;100588.19;;;14.51;100.00
10897;BME280;5501;51.176;6.470;2022-10-24T21:02:53;100592.28;;;14.58;100.00
10897;BME280;5501;51.176;6.470;2022-10-24T21:07:54;100587.31;;;14.69;100.00
10897;BME280;5501;51.176;6.470;2022-10-24T21:12:56;100599.94;;;14.67;100.00
10897;BME280;5501;51.176;6.470;2022-10-24T21:17:57;100597.81;;;14.73;100.00
10897;BME280;5501;51.176;6.470;2022-10-24T21:22:59;100600.50;;;14.73;100.00
10897;BME280;5501;51.176;6.470;2022-10-24T21:28:00;100603.50;;;14.66;100.00
10897;BME280;5501;51.176;6.470;2022-10-24T21:33:02;100607.13;;;14.65;100.00
10897;BME280;5501;51.176;6.470;2022-10-24T21:38:04;100603.94;;;14.57;100.00
10897;BME280;5501;51.176;6.470;2022-10-24T21:43:06;100612.63;;;14.62;100.00
10897;BME280;5501;51.176;6.470;2022-10-24T21:48:07;100621.34;;;14.67;100.00
10897;BME280;5501;51.176;6.470;2022-10-24T21:53:08;100626.09;;;14.60;100.00
10897;BME280;5501;51.176;6.470;2022-10-24T21:58:10;100621.91;;;14.55;100.00
10897;BME280;5501;51.176;6.470;2022-10-24T22:03:11;100620.13;;;14.54;100.00
10897;BME280;5501;51.176;6.470;2022-10-24T22:08:13;100636.19;;;14.54;100.00
10897;BME280;5501;51.176;6.470;2022-10-24T22:13:14;100633.91;;;14.65;100.00
10897;BME280;5501;51.176;6.470;2022-10-24T22:18:16;100640.00;;;14.68;100.00
10897;BME280;5501;51.176;6.470;2022-10-24T22:23:17;100639.56;;;14.59;100.00
10897;BME280;5501;51.176;6.470;2022-10-24T22:28:19;100636.53;;;14.66;100.00
10897;BME280;5501;51.176;6.470;2022-10-24T22:33:35;100636.31;;;14.71;100.00
10897;BME280;5501;51.176;6.470;2022-10-24T22:38:37;100639.59;;;14.77;100.00
10897;BME280;5501;51.176;6.470;2022-10-24T22:43:39;100641.25;;;14.80;100.00
10897;BME280;5501;51.176;6.470;2022-10-24T22:48:43;100649.28;;;14.80;100.00
10897;BME280;5501;51.176;6.470;2022-10-24T22:53:47;100650.56;;;14.71;100.00
10897;BME280;5501;51.176;6.470;2022-10-24T22:58:49;100658.38;;;14.76;100.00
10897;BME280;5501;51.176;6.470;2022-10-24T23:09:24;100675.81;;;14.84;100.00
10897;BME280;5501;51.176;6.470;2022-10-24T23:14:26;100677.66;;;14.84;100.00
10897;BME280;5501;51.176;6.470;2022-10-24T23:19:29;100681.53;;;14.77;100.00
10897;BME280;5501;51.176;6.470;2022-10-24T23:24:31;100685.16;;;14.76;100.00
10897;BME280;5501;51.176;6.470;2022-10-24T23:29:34;100690.22;;;14.82;100.00
10897;BME280;5501;51.176;6.470;2022-10-24T23:34:36;100703.34;;;14.88;100.00
10897;BME280;5501;51.176;6.470;2022-10-24T23:39:38;100709.78;;;14.84;100.00
10897;BME280;5501;51.176;6.470;2022-10-24T23:44:40;100722.28;;;14.83;100.00
10897;BME280;5501;51.176;6.470;2022-10-24T23:49:50;100712.31;;;14.87;100.00
10897;BME280;5501;51.176;6.470;2022-10-24T23:54:55;100724.25;;;14.80;100.00
10897;BME280;5501;51.176;6.470;2022-10-24T23:59:57;100719.41;;;14.88;100.00
